Skip Navigation Links Skip Navigation Links

Current Weather

Heathrow, London

For information only: do not use for flight planning or navigation.
Latest weather
Observation time Monday, March 19, 2018 10:50 AM GMT
Local time Monday, March 19, 2018 10:56 AM GMT
Flight conditions Visual Meteorological Conditions
Wind direction East-Northeast (60°)
Wind speed 16 mph
Visibility 6.2 mi.
Sky condition
Ceiling 3,400 ft. overcast
Cloud layer overcast 3,400 ft.
Temperature 34°F
Dewpoint 21°F
Altimeter 29.97 in.Hg
Derived measurements
Relative humidity 59%
Wind chill 24°F
Density altitude -1703 ft.
Corrected report.
Fully automated report.
No significant changes expected in the next two hours.
METAR COR EGLL 191050Z AUTO 06014KT 9999 OVC034 01/M06 Q1015 NOSIG


Location code

InnerDrive.Weather 4.0.6615.0 Release CLR 4.0.30319.42000
Copyright ©2018 Inner Drive Technology. All rights reserved. Portions Copyright ©1986-2018 David Braverman.

Find weather

Site navigation

Skip Navigation Links

Place info

Page info

PayPal - The safer, easier way to pay online!

Return home.

Copyright ©2018 Inner Drive Technology. Purveyors of fine, hand-crafted computer software. Page printed 2018-03-19T10:56:52 UTC.